< Typhoon 197807 1978 Season Typhoon 197809 >
Typhoon 197808 (WENDY)
General InformationTrack Information on Google MapsDetailed Wind Information || Disaster Info.ResourceGoogle EarthGE AnimationAtom FeedGeoJSON
Detalied Best Track (Time Zone = UTC)
Year Month Day Hour Lat. Long. Pressure (hPa) Wind (kt) Class Image Chart
1978 7 22 00 18.5 139.5 1000 0 2 -- Chart
1978 7 22 06 19.2 139.3 1000 0 2 -- Chart
1978 7 22 12 20.0 139.0 1000 0 2 -- Chart
1978 7 22 18 20.6 138.0 1000 0 2 -- Chart
1978 7 23 00 21.0 137.1 1000 0 2 -- Chart
1978 7 23 06 21.1 136.4 1000 0 2 -- Chart
1978 7 23 12 21.1 135.8 998 0 2 -- Chart
1978 7 23 18 21.0 135.3 996 0 2 -- Chart
1978 7 24 00 20.9 134.7 996 0 2 -- Chart
1978 7 24 06 20.7 134.0 994 35 3 -- Chart
1978 7 24 12 20.8 133.9 992 40 3 -- Chart
1978 7 24 18 20.7 133.7 990 45 3 -- Chart
1978 7 25 00 20.9 133.7 985 50 4 -- Chart
1978 7 25 06 20.8 133.7 980 55 4 -- Chart
1978 7 25 12 20.9 133.8 980 60 4 -- Chart
1978 7 25 18 21.2 133.7 975 65 5 -- Chart
1978 7 26 00 21.5 133.5 975 65 5 -- Chart
1978 7 26 06 21.9 133.1 975 70 5 -- Chart
1978 7 26 12 22.1 132.9 970 70 5 -- Chart
1978 7 26 18 22.6 132.5 965 70 5 -- Chart
1978 7 27 00 23.2 132.4 965 70 5 -- Chart
1978 7 27 06 23.9 132.1 960 70 5 -- Chart
1978 7 27 12 24.7 131.5 960 70 5 -- Chart
1978 7 27 18 25.5 130.8 960 70 5 -- Chart
1978 7 28 00 26.5 129.9 960 70 5 -- Chart
1978 7 28 06 27.1 128.5 960 70 5 -- Chart
1978 7 28 12 27.4 127.2 965 70 5 -- Chart
1978 7 28 18 27.9 126.4 970 60 4 -- Chart
1978 7 29 00 28.2 126.1 960 60 4 -- Chart
1978 7 29 06 28.8 126.0 960 70 5 -- Chart
1978 7 29 12 29.2 125.9 960 70 5 -- Chart
1978 7 29 18 29.7 125.7 960 70 5 -- Chart
1978 7 30 00 30.2 125.6 960 70 5 -- Chart
1978 7 30 06 30.4 125.2 965 70 5 -- Chart
1978 7 30 12 30.6 124.8 965 70 5 -- Chart
1978 7 30 18 30.8 124.6 965 70 5 -- Chart
1978 7 31 00 30.6 124.7 970 70 5 -- Chart
1978 7 31 06 30.6 125.0 970 70 5 -- Chart
1978 7 31 12 30.6 125.2 970 70 5 -- Chart
1978 7 31 18 30.6 125.3 975 70 5 -- Chart
1978 8 1 00 30.6 125.5 975 70 5 -- Chart
1978 8 1 06 30.7 125.9 980 70 5 -- Chart
1978 8 1 12 31.0 126.7 980 50 4 -- Chart
1978 8 1 18 31.4 127.6 980 50 4 -- Chart
1978 8 2 00 31.7 128.5 980 50 4 -- Chart
1978 8 2 06 32.2 129.4 980 40 3 -- Chart
1978 8 2 12 32.8 131.6 985 35 3 -- Chart
1978 8 2 18 34.4 132.8 988 35 3 -- Chart
1978 8 3 00 37.0 133.2 988 35 3 -- Chart
1978 8 3 06 39.0 134.5 990 0 6 -- Chart
1978 8 3 12 41.0 136.0 990 0 6 -- Chart
1978 8 3 18 43.0 139.0 990 0 6 -- Chart
1978 8 4 00 44.0 141.0 990 0 6 -- Chart
1978 8 4 06 47.0 146.0 988 0 6 -- Chart
1978 8 4 12 48.0 149.0 988 0 6 -- Chart
1978 8 4 18 49.0 152.0 984 0 6 -- Chart
1978 8 5 00 49.0 154.0 984 0 6 -- Chart
1978 8 5 06 49.0 157.0 984 0 6 -- Chart
1978 8 5 12 49.0 161.0 984 0 6 -- Chart
1978 8 5 18 49.0 163.0 984 0 6 -- Chart
1978 8 6 00 50.7 166.0 984 0 6 -- Chart
1978 8 6 06 51.8 169.2 984 0 6 -- Chart
1978 8 6 12 52.8 172.0 982 0 6 -- Chart
1978 8 6 18 53.9 174.7 984 0 6 -- Chart
1978 8 7 00 55.1 177.0 984 0 6 -- Chart
1978 8 7 06 55.9 176.5 984 0 6 -- Chart
1978 8 7 12 56.4 175.9 988 0 6 -- Chart
1978 8 7 18 57.0 175.7 988 0 6 -- Chart
1978 8 8 00 57.8 175.2 992 0 6 -- Chart
1978 8 8 06 59.0 175.0 994 0 6 -- Chart
Japan Meteorological Agency Best Track Data | Correction Date : 1992-10-21
< Typhoon 197807 1978 Season Typhoon 197809 >

Help